Time;durP1;ratioP1;P1;durP2;ratioP2;P2;SDS_P1;SDS_P2;PMS_P1;PMS_P2;Temp;Humidity;BMP_temperature;BMP_pressure;BME280_temperature;BME280_humidity;BME280_pressure;Samples;Min_cycle;Max_cycle;Signal;HPM_P1;HPM_P2
2023/03/22 00:01:19;;;;;;;2.00;0.70;;;17.00;67.90;;;;;;6255855;23;20000;-76
2023/03/22 00:03:45;;;;;;;3.35;0.93;;;17.10;58.90;;;;;;6255763;23;20439;-76
2023/03/22 00:06:11;;;;;;;1.77;0.70;;;17.10;58.90;;;;;;6255767;23;20043;-76
2023/03/22 00:08:38;;;;;;;1.80;0.70;;;17.00;58.80;;;;;;6246059;23;19996;-76
2023/03/22 00:11:05;;;;;;;2.80;0.82;;;17.10;58.90;;;;;;6245596;23;20620;-75
2023/03/22 00:13:33;;;;;;;4.22;0.90;;;17.10;58.90;;;;;;6246037;23;20075;-76
2023/03/22 00:16:01;;;;;;;3.08;0.90;;;17.10;58.90;;;;;;6246002;23;20000;-72
2023/03/22 00:18:28;;;;;;;1.38;0.65;;;17.10;58.90;;;;;;6245525;23;20067;-72
2023/03/22 00:20:56;;;;;;;2.08;0.90;;;17.10;58.80;;;;;;6255799;23;20061;-72
2023/03/22 00:23:22;;;;;;;3.45;0.65;;;17.10;58.90;;;;;;6255643;23;20000;-72
2023/03/22 00:25:48;;;;;;;1.55;0.60;;;17.10;58.80;;;;;;6255192;23;20004;-72
2023/03/22 00:28:15;;;;;;;3.40;1.10;;;17.10;58.80;;;;;;6255419;23;20008;-72
2023/03/22 00:30:42;;;;;;;4.15;1.50;;;17.10;58.80;;;;;;6245388;23;20055;-71
2023/03/22 00:33:08;;;;;;;3.72;1.08;;;17.00;58.80;;;;;;6255542;23;19996;-76
2023/03/22 00:35:34;;;;;;;3.53;0.80;;;17.10;58.80;;;;;;6255600;23;20481;-76
2023/03/22 00:38:04;;;;;;;2.40;1.00;;;17.10;58.80;;;;;;6255560;23;20328;-76
2023/03/22 00:40:32;;;;;;;2.90;0.93;;;17.10;58.80;;;;;;6255640;23;19996;-75
2023/03/22 00:42:58;;;;;;;2.70;1.08;;;17.10;58.80;;;;;;6245671;23;20072;-76
2023/03/22 00:45:24;;;;;;;2.40;0.98;;;17.00;58.70;;;;;;6255425;23;20032;-76
2023/03/22 00:47:49;;;;;;;3.25;0.90;;;17.10;58.80;;;;;;6255530;23;20046;-76
2023/03/22 00:50:15;;;;;;;3.38;0.80;;;17.10;58.70;;;;;;6255461;23;20379;-76
2023/03/22 00:52:41;;;;;;;3.20;1.15;;;17.00;59.40;;;;;;6255453;23;20003;-76
2023/03/22 00:55:07;;;;;;;2.50;1.00;;;17.00;58.80;;;;;;6255442;23;19997;-76
2023/03/22 00:57:32;;;;;;;1.38;0.88;;;17.00;58.80;;;;;;6255383;23;20022;-76
2023/03/22 00:59:58;;;;;;;2.10;0.70;;;17.00;58.80;;;;;;6255405;23;20000;-76
2023/03/22 01:02:28;;;;;;;1.63;0.75;;;17.00;58.80;;;;;;6254957;23;20023;-76
2023/03/22 01:04:54;;;;;;;1.83;0.95;;;17.00;58.70;;;;;;6245452;23;20067;-76
2023/03/22 01:07:20;;;;;;;2.75;0.90;;;17.00;58.70;;;;;;6255201;23;20039;-76
2023/03/22 01:09:47;;;;;;;1.33;0.57;;;17.00;58.70;;;;;;6255415;23;20450;-73
2023/03/22 01:12:13;;;;;;;3.83;0.90;;;17.00;58.70;;;;;;6255196;23;20000;-72
2023/03/22 01:14:39;;;;;;;3.15;0.60;;;17.00;58.80;;;;;;6255220;23;19996;-72
2023/03/22 01:17:06;;;;;;;2.55;1.00;;;17.00;58.70;;;;;;6255215;23;20069;-72
2023/03/22 01:19:32;;;;;;;2.08;0.98;;;17.00;59.40;;;;;;6245203;23;19996;-72
2023/03/22 01:21:58;;;;;;;3.03;0.98;;;17.00;58.70;;;;;;6255240;23;20024;-72
2023/03/22 01:24:24;;;;;;;1.75;0.82;;;17.00;58.80;;;;;;6255026;23;19999;-72
2023/03/22 01:26:50;;;;;;;3.35;0.98;;;17.00;58.80;;;;;;6255094;23;20431;-72
2023/03/22 01:29:16;;;;;;;1.95;1.00;;;17.00;58.70;;;;;;6255057;23;20332;-72
2023/03/22 01:31:42;;;;;;;2.50;1.10;;;17.00;58.70;;;;;;6255185;23;20004;-72
2023/03/22 01:34:08;;;;;;;2.97;1.15;;;17.00;58.80;;;;;;6255121;23;19996;-72
2023/03/22 01:36:33;;;;;;;1.88;0.73;;;17.00;58.70;;;;;;6255048;23;20050;-72
2023/03/22 01:38:59;;;;;;;2.50;1.10;;;17.00;58.80;;;;;;6254894;23;20031;-72
2023/03/22 01:41:25;;;;;;;3.10;1.10;;;17.00;58.70;;;;;;6254980;23;20024;-72
2023/03/22 01:44:12;;;;;;;4.22;1.27;;;17.00;58.70;;;;;;6254933;23;19996;-72
2023/03/22 01:46:42;;;;;;;3.00;1.00;;;17.00;58.70;;;;;;6255020;23;20033;-73
2023/03/22 01:49:13;;;;;;;2.25;0.98;;;17.00;58.70;;;;;;6255137;23;20184;-72
2023/03/22 01:51:40;;;;;;;1.23;0.82;;;17.00;58.70;;;;;;6255014;23;20378;-72
2023/03/22 01:54:13;;;;;;;2.30;1.10;;;17.00;58.70;;;;;;6255005;23;19996;-72
2023/03/22 01:56:40;;;;;;;2.50;0.80;;;17.00;58.70;;;;;;6254921;23;20466;-72
2023/03/22 01:59:11;;;;;;;2.47;0.90;;;17.00;58.80;;;;;;6254935;23;19996;-72
2023/03/22 02:01:37;;;;;;;3.92;1.08;;;17.00;58.70;;;;;;6254835;23;19996;-72
2023/03/22 02:04:22;;;;;;;2.58;1.17;;;17.00;58.80;;;;;;6244418;23;20019;-72
2023/03/22 02:06:52;;;;;;;3.67;1.15;;;17.00;58.70;;;;;;6254907;23;20008;-72
2023/03/22 02:09:20;;;;;;;2.42;1.00;;;17.00;58.70;;;;;;6254990;23;19996;-72
2023/03/22 02:12:04;;;;;;;2.47;1.10;;;17.00;58.70;;;;;;6254888;23;19999;-72
2023/03/22 02:14:56;;;;;;;2.67;1.17;;;17.00;58.70;;;;;;6254843;23;20342;-72
2023/03/22 02:17:30;;;;;;;2.35;0.80;;;17.00;58.70;;;;;;6254861;23;20067;-72
2023/03/22 02:20:23;;;;;;;1.60;1.00;;;17.00;58.70;;;;;;6244537;23;20004;-72
2023/03/22 02:23:28;;;;;;;3.67;1.10;;;17.00;58.70;;;;;;6254894;23;20000;-72
2023/03/22 02:26:24;;;;;;;3.10;1.45;;;16.90;58.60;;;;;;6254790;23;20075;-72
2023/03/22 02:29:02;;;;;;;2.22;1.10;;;17.00;58.70;;;;;;6254673;23;19996;-72
2023/03/22 02:31:55;;;;;;;2.28;1.08;;;16.90;58.70;;;;;;6254760;23;19993;-72
2023/03/22 02:34:29;;;;;;;2.80;1.42;;;17.00;58.70;;;;;;6254812;23;20000;-72
2023/03/22 02:37:21;;;;;;;2.65;1.10;;;17.00;58.80;;;;;;6244945;23;20000;-72
2023/03/22 02:39:53;;;;;;;1.90;0.93;;;17.00;58.80;;;;;;6254705;23;20443;-72
2023/03/22 02:43:04;;;;;;;2.03;0.93;;;16.90;58.80;;;;;;6245084;23;20328;-72
2023/03/22 02:45:44;;;;;;;1.77;1.08;;;16.90;58.80;;;;;;6102566;23;20014;-72
2023/03/22 02:48:17;;;;;;;1.75;0.80;;;16.90;58.80;;;;;;6238047;23;20003;-72
2023/03/22 02:50:58;;;;;;;3.38;1.55;;;16.90;58.80;;;;;;6256001;23;20003;-72
2023/03/22 02:53:46;;;;;;;1.77;1.10;;;16.90;58.80;;;;;;6256511;23;20003;-72
2023/03/22 02:56:25;;;;;;;3.22;1.27;;;16.90;58.90;;;;;;6256644;23;19992;-72
2023/03/22 02:58:55;;;;;;;2.05;1.17;;;16.90;58.90;;;;;;6256538;23;20000;-72
2023/03/22 03:01:24;;;;;;;2.33;1.10;;;17.00;68.00;;;;;;6246755;23;20022;-72
2023/03/22 03:03:51;;;;;;;2.33;1.20;;;16.90;59.00;;;;;;6256289;23;20141;-72
2023/03/22 03:06:20;;;;;;;2.28;1.15;;;16.90;59.00;;;;;;6256351;23;20008;-72
2023/03/22 03:08:52;;;;;;;3.75;1.13;;;16.90;59.10;;;;;;6256398;23;20080;-72
2023/03/22 03:11:18;;;;;;;3.08;1.33;;;16.90;59.00;;;;;;6256486;23;19996;-72
2023/03/22 03:13:48;;;;;;;2.33;1.50;;;16.90;59.00;;;;;;6256311;23;19996;-71
2023/03/22 03:16:25;;;;;;;2.47;0.90;;;16.90;59.00;;;;;;6256450;23;19997;-72
2023/03/22 03:18:59;;;;;;;2.25;1.05;;;16.90;59.00;;;;;;6246148;23;19996;-75
2023/03/22 03:21:46;;;;;;;2.25;1.25;;;16.90;59.10;;;;;;6256480;23;20067;-75
2023/03/22 03:24:16;;;;;;;2.88;1.20;;;16.90;59.10;;;;;;6256314;23;19996;-76
2023/03/22 03:27:16;;;;;;;2.75;0.90;;;16.90;59.10;;;;;;6245919;23;20015;-76
2023/03/22 03:29:56;;;;;;;2.10;1.13;;;16.90;59.00;;;;;;6238118;23;20027;-75
2023/03/22 03:32:34;;;;;;;4.53;1.90;;;16.90;59.10;;;;;;6256325;23;20238;-75
2023/03/22 03:35:24;;;;;;;2.63;1.50;;;16.90;59.10;;;;;;6256217;23;20003;-75
2023/03/22 03:38:00;;;;;;;2.55;1.23;;;16.90;59.10;;;;;;6256305;23;20057;-76
2023/03/22 03:40:30;;;;;;;0.88;0.80;;;16.90;59.10;;;;;;6256308;23;20070;-76
2023/03/22 03:42:57;;;;;;;;;;;16.90;59.10;;;;;;6246448;23;20000;-75
2023/03/22 03:45:24;;;;;;;1.88;0.98;;;16.90;59.80;;;;;;6246383;23;19915;-75
2023/03/22 03:47:57;;;;;;;1.65;0.95;;;16.90;59.10;;;;;;6246196;23;19996;-75
2023/03/22 03:50:24;;;;;;;2.92;1.27;;;16.90;59.10;;;;;;6246281;23;20297;-75
2023/03/22 03:52:51;;;;;;;1.58;1.10;;;16.90;59.10;;;;;;6256022;23;20000;-75
2023/03/22 03:55:17;;;;;;;3.25;1.80;;;16.90;59.10;;;;;;6255942;23;20059;-75
2023/03/22 03:57:43;;;;;;;1.83;0.90;;;16.90;59.10;;;;;;6256100;23;20065;-75
2023/03/22 04:00:09;;;;;;;3.05;1.23;;;16.90;59.10;;;;;;6255876;23;20495;-76
2023/03/22 04:02:35;;;;;;;1.92;1.10;;;16.90;59.10;;;;;;6255630;23;20058;-75
2023/03/22 04:05:01;;;;;;;2.50;1.00;;;16.90;59.10;;;;;;6255787;23;20090;-76
2023/03/22 04:07:26;;;;;;;2.75;1.50;;;16.90;59.10;;;;;;6255935;23;20427;-75
2023/03/22 04:09:52;;;;;;;4.03;1.42;;;16.90;59.10;;;;;;6245969;23;20002;-76
2023/03/22 04:12:17;;;;;;;3.17;1.17;;;16.90;59.10;;;;;;6255858;23;19996;-76
2023/03/22 04:14:43;;;;;;;2.05;1.40;;;16.80;59.70;;;;;;6255843;23;19992;-71
2023/03/22 04:17:09;;;;;;;2.17;1.38;;;16.80;59.00;;;;;;6255768;23;20000;-70
2023/03/22 04:19:35;;;;;;;2.75;1.20;;;16.90;59.10;;;;;;6255754;23;19993;-71
2023/03/22 04:22:01;;;;;;;2.25;1.10;;;16.80;59.10;;;;;;6255738;23;20000;-71
2023/03/22 04:24:26;;;;;;;3.65;1.40;;;16.90;59.10;;;;;;6255696;23;20312;-71
2023/03/22 04:26:52;;;;;;;2.33;1.35;;;16.90;59.10;;;;;;6255562;23;20004;-71
2023/03/22 04:29:18;;;;;;;1.40;1.08;;;16.90;59.10;;;;;;6255648;23;20038;-71
2023/03/22 04:31:43;;;;;;;3.42;1.25;;;16.90;59.10;;;;;;6255697;23;20007;-71
2023/03/22 04:34:09;;;;;;;2.60;1.63;;;16.90;59.10;;;;;;6255686;23;20110;-75
2023/03/22 04:36:38;;;;;;;3.05;1.40;;;16.80;59.00;;;;;;6255590;23;20058;-75
2023/03/22 04:39:06;;;;;;;2.42;1.20;;;16.80;59.10;;;;;;6245692;23;20068;-75
2023/03/22 04:41:33;;;;;;;2.65;1.13;;;16.80;59.00;;;;;;6255459;23;20050;-76
2023/03/22 04:44:02;;;;;;;2.97;1.40;;;16.80;59.00;;;;;;6255481;23;20006;-76
2023/03/22 04:46:33;;;;;;;3.05;1.40;;;16.80;59.00;;;;;;6255433;23;20047;-75
2023/03/22 04:49:00;;;;;;;4.30;1.30;;;16.80;59.10;;;;;;6245577;23;19996;-77
2023/03/22 04:51:27;;;;;;;2.30;1.17;;;16.80;59.00;;;;;;6245567;23;19996;-75
2023/03/22 04:53:53;;;;;;;4.05;1.30;;;16.90;59.80;;;;;;6255322;23;19996;-76
2023/03/22 04:56:19;;;;;;;3.83;1.50;;;16.90;59.20;;;;;;6255195;23;20067;-76
2023/03/22 04:58:45;;;;;;;3.22;1.45;;;16.90;59.10;;;;;;6245587;23;20008;-76
2023/03/22 05:01:13;;;;;;;2.88;1.00;;;16.80;68.10;;;;;;6245363;23;20382;-76
2023/03/22 05:03:41;;;;;;;3.70;1.35;;;16.90;59.80;;;;;;6245037;23;20015;-76
2023/03/22 05:06:08;;;;;;;3.17;1.35;;;16.90;59.20;;;;;;6245366;23;20015;-76
2023/03/22 05:08:35;;;;;;;2.83;1.30;;;16.90;59.10;;;;;;6245421;23;19992;-76
2023/03/22 05:11:11;;;;;;;2.55;1.17;;;16.90;59.10;;;;;;6245530;23;20004;-76
2023/03/22 05:13:37;;;;;;;5.72;1.30;;;16.90;58.90;;;;;;6255111;23;20004;-76
2023/03/22 05:16:04;;;;;;;5.43;1.52;;;16.90;58.90;;;;;;6255257;23;19996;-76
2023/03/22 05:18:31;;;;;;;3.95;1.63;;;16.90;58.90;;;;;;6245262;23;19992;-76
2023/03/22 05:20:58;;;;;;;3.55;1.20;;;16.90;58.80;;;;;;6255176;23;20027;-76
2023/03/22 05:23:23;;;;;;;4.80;1.35;;;16.90;58.80;;;;;;6255127;23;19992;-76
2023/03/22 05:25:51;;;;;;;4.80;1.50;;;16.90;58.70;;;;;;6255144;23;20079;-76
2023/03/22 05:28:20;;;;;;;4.85;1.27;;;16.90;58.70;;;;;;6255097;23;19996;-75
2023/03/22 05:30:50;;;;;;;4.97;1.55;;;16.90;58.70;;;;;;6245359;23;20000;-76
2023/03/22 05:33:20;;;;;;;2.65;1.02;;;16.90;58.80;;;;;;6245185;23;19996;-75
2023/03/22 05:35:48;;;;;;;2.53;1.13;;;16.90;58.70;;;;;;6255161;23;20058;-76
2023/03/22 05:38:14;;;;;;;2.45;0.85;;;16.90;58.70;;;;;;6255056;23;20565;-76
2023/03/22 05:40:39;;;;;;;4.10;1.42;;;16.90;58.60;;;;;;6244910;23;20043;-76
2023/03/22 05:43:05;;;;;;;5.15;1.58;;;16.90;58.60;;;;;;6218026;23;20462;-76
2023/03/22 05:45:31;;;;;;;2.00;0.93;;;16.90;58.60;;;;;;6254935;23;20012;-76
2023/03/22 05:47:57;;;;;;;2.67;1.00;;;16.90;59.20;;;;;;6245301;23;19992;-71
2023/03/22 05:50:23;;;;;;;3.75;1.15;;;16.90;58.50;;;;;;6244974;23;20332;-72
2023/03/22 05:52:50;;;;;;;4.18;1.27;;;16.90;58.50;;;;;;6245066;23;19997;-72
2023/03/22 05:55:17;;;;;;;3.17;1.27;;;16.90;58.50;;;;;;6245032;23;20059;-72
2023/03/22 05:57:43;;;;;;;5.30;1.20;;;16.90;58.40;;;;;;6245055;23;20031;-72
2023/03/22 06:00:13;;;;;;;5.68;1.40;;;16.90;58.50;;;;;;6255016;23;19992;-72
2023/03/22 06:02:40;;;;;;;3.25;1.00;;;16.90;58.50;;;;;;6254668;23;20008;-72
2023/03/22 06:05:07;;;;;;;3.25;1.15;;;16.90;58.40;;;;;;6254537;23;19999;-72
2023/03/22 06:07:33;;;;;;;2.80;0.85;;;16.80;58.40;;;;;;6254689;23;20121;-72
2023/03/22 06:09:58;;;;;;;5.82;1.40;;;16.80;58.30;;;;;;6244408;23;19993;-72
2023/03/22 06:12:24;;;;;;;6.38;1.25;;;16.80;58.40;;;;;;6258127;23;20006;-71
2023/03/22 06:14:50;;;;;;;4.60;1.08;;;16.80;58.40;;;;;;6260897;23;20028;-72
2023/03/22 06:17:17;;;;;;;5.43;1.27;;;16.80;59.10;;;;;;6254655;23;20000;-71
2023/03/22 06:19:42;;;;;;;4.68;1.30;;;16.80;58.50;;;;;;6254651;23;20000;-72
2023/03/22 06:22:08;;;;;;;4.07;0.90;;;16.80;59.10;;;;;;6254619;23;20449;-72
2023/03/22 06:24:34;;;;;;;6.88;1.67;;;16.90;58.60;;;;;;6255028;23;20003;-76
2023/03/22 06:27:00;;;;;;;3.90;1.30;;;16.80;58.50;;;;;;6256574;23;20458;-76
2023/03/22 06:29:26;;;;;;;2.45;0.75;;;16.80;58.50;;;;;;6256556;23;19996;-76
2023/03/22 06:31:51;;;;;;;5.53;1.35;;;16.80;58.50;;;;;;6256613;23;20007;-76
2023/03/22 06:34:17;;;;;;;4.72;1.20;;;16.90;58.50;;;;;;6256550;23;20388;-78
2023/03/22 06:36:43;;;;;;;6.20;1.15;;;16.80;58.40;;;;;;6256455;23;20003;-76
2023/03/22 06:39:08;;;;;;;6.70;1.40;;;16.80;58.40;;;;;;6256527;23;19996;-76
2023/03/22 06:41:34;;;;;;;3.75;0.95;;;16.90;58.50;;;;;;6256475;23;19996;-77
2023/03/22 06:44:01;;;;;;;3.67;0.73;;;16.90;58.50;;;;;;6219422;23;20661;-77
2023/03/22 06:46:27;;;;;;;4.45;1.10;;;16.80;58.40;;;;;;6246557;23;20008;-78
2023/03/22 06:48:53;;;;;;;2.55;0.90;;;16.80;58.40;;;;;;6246363;23;20000;-77
2023/03/22 06:51:19;;;;;;;3.10;0.90;;;16.80;58.40;;;;;;6246653;23;20081;-77
2023/03/22 06:53:45;;;;;;;3.88;0.90;;;16.80;58.50;;;;;;6246611;23;20130;-77
2023/03/22 06:56:11;;;;;;;3.78;1.33;;;16.90;58.50;;;;;;6246462;23;20000;-77
2023/03/22 06:58:37;;;;;;;2.55;1.23;;;16.80;58.40;;;;;;6246639;23;20027;-77
2023/03/22 07:01:02;;;;;;;3.28;0.90;;;16.90;58.50;;;;;;6256606;23;19996;-72
2023/03/22 07:03:28;;;;;;;5.18;1.35;;;16.90;58.40;;;;;;6256163;23;20015;-72
2023/03/22 07:06:06;;;;;;;5.78;1.00;;;16.90;58.30;;;;;;6256276;23;20008;-72
2023/03/22 07:08:31;;;;;;;4.82;1.27;;;16.90;58.30;;;;;;6256390;23;20000;-72
2023/03/22 07:10:57;;;;;;;5.95;1.00;;;16.80;58.30;;;;;;6256451;23;20000;-72
2023/03/22 07:13:23;;;;;;;4.20;1.10;;;16.80;58.30;;;;;;6256291;23;20000;-72
2023/03/22 07:15:48;;;;;;;4.07;1.10;;;16.90;58.40;;;;;;6256229;23;20340;-72
2023/03/22 07:18:14;;;;;;;2.78;1.27;;;16.80;58.30;;;;;;6256457;23;19993;-72
2023/03/22 07:20:41;;;;;;;5.38;1.17;;;16.90;58.30;;;;;;6256334;23;20066;-72
2023/03/22 07:23:09;;;;;;;3.53;1.02;;;16.80;58.30;;;;;;6256315;23;20370;-72
2023/03/22 07:25:35;;;;;;;2.03;0.80;;;16.80;58.30;;;;;;6245931;23;20004;-72
2023/03/22 07:28:00;;;;;;;4.57;1.17;;;16.80;58.30;;;;;;6256199;23;20015;-72
2023/03/22 07:30:26;;;;;;;5.43;1.20;;;16.80;58.30;;;;;;6256310;23;20435;-72
2023/03/22 07:32:51;;;;;;;4.18;1.35;;;16.80;58.20;;;;;;6256241;23;20075;-72
2023/03/22 07:35:17;;;;;;;3.90;1.40;;;16.80;58.30;;;;;;6256314;23;20058;-72
2023/03/22 07:37:44;;;;;;;4.65;1.02;;;16.80;58.30;;;;;;6261366;23;20344;-71
2023/03/22 07:40:10;;;;;;;3.60;1.30;;;16.80;58.90;;;;;;6259584;23;20066;-71
2023/03/22 07:42:36;;;;;;;6.90;1.23;;;16.80;58.30;;;;;;6256130;23;20478;-70
2023/03/22 07:45:02;;;;;;;4.13;1.00;;;16.80;58.30;;;;;;6255932;23;20000;-72
2023/03/22 07:47:28;;;;;;;3.47;1.38;;;16.80;58.40;;;;;;6256177;23;19992;-71
2023/03/22 07:49:54;;;;;;;7.72;1.67;;;16.80;58.40;;;;;;6255994;23;20001;-72
2023/03/22 07:52:19;;;;;;;5.82;1.13;;;16.80;58.40;;;;;;6255988;23;19999;-71
2023/03/22 07:54:45;;;;;;;3.17;1.20;;;16.80;58.40;;;;;;6256006;23;19996;-72
2023/03/22 07:57:11;;;;;;;3.05;1.00;;;16.80;58.40;;;;;;6255967;23;20004;-72
2023/03/22 07:59:36;;;;;;;5.38;1.60;;;16.80;58.50;;;;;;6255948;23;20028;-72
2023/03/22 08:02:02;;;;;;;3.50;1.10;;;16.70;58.40;;;;;;6255455;23;20445;-72
2023/03/22 08:04:29;;;;;;;3.83;1.27;;;16.70;58.40;;;;;;6255964;23;20019;-72
2023/03/22 08:06:57;;;;;;;6.93;1.65;;;16.70;58.40;;;;;;6255800;23;20004;-72
2023/03/22 08:09:24;;;;;;;3.45;1.17;;;16.70;58.50;;;;;;6255841;23;20370;-72
2023/03/22 08:11:50;;;;;;;3.33;1.23;;;16.70;58.40;;;;;;6245854;23;20000;-72
2023/03/22 08:14:15;;;;;;;6.68;1.58;;;16.70;59.10;;;;;;6255887;23;19996;-76
2023/03/22 08:16:43;;;;;;;4.60;1.10;;;16.70;58.50;;;;;;6255766;23;20441;-75
2023/03/22 08:19:09;;;;;;;7.20;1.58;;;16.70;59.20;;;;;;6255715;23;20019;-75
2023/03/22 08:21:35;;;;;;;3.28;0.98;;;16.70;58.50;;;;;;6255806;23;20002;-75
2023/03/22 08:24:01;;;;;;;3.42;1.17;;;16.70;58.50;;;;;;6255613;23;20116;-77
2023/03/22 08:26:27;;;;;;;3.97;1.23;;;16.70;58.50;;;;;;6255601;23;20004;-75
2023/03/22 08:28:52;;;;;;;4.20;1.33;;;16.70;58.50;;;;;;6255488;23;19996;-75
2023/03/22 08:31:19;;;;;;;3.03;1.30;;;16.70;58.60;;;;;;6245306;23;19997;-75
2023/03/22 08:33:45;;;;;;;6.68;1.40;;;16.70;58.60;;;;;;6248813;23;19996;-71
2023/03/22 08:36:14;;;;;;;5.95;1.52;;;16.70;58.70;;;;;;6255509;23;20038;-72
2023/03/22 08:38:41;;;;;;;6.97;1.27;;;16.70;59.00;;;;;;6255623;23;20071;-72
2023/03/22 08:41:07;;;;;;;3.20;1.00;;;16.70;59.00;;;;;;6218478;23;20000;-71
2023/03/22 08:43:32;;;;;;;5.03;1.20;;;16.80;59.00;;;;;;6255439;23;19996;-72
2023/03/22 08:45:58;;;;;;;5.25;1.40;;;16.80;59.10;;;;;;6255448;23;20436;-72
2023/03/22 08:48:26;;;;;;;4.03;1.13;;;16.80;59.10;;;;;;6255116;23;19999;-72
2023/03/22 08:50:52;;;;;;;4.20;1.17;;;16.80;59.70;;;;;;6255470;23;19996;-72
2023/03/22 08:53:17;;;;;;;2.80;1.17;;;16.80;59.20;;;;;;6255381;23;20003;-72
2023/03/22 08:55:43;;;;;;;4.90;1.00;;;16.80;59.20;;;;;;6255453;23;20054;-71
2023/03/22 08:58:13;;;;;;;3.67;0.85;;;16.80;59.80;;;;;;6245377;23;20079;-71
2023/03/22 09:00:40;;;;;;;2.22;0.82;;;16.80;59.10;;;;;;6255223;23;20019;-71
2023/03/22 09:03:05;;;;;;;4.57;1.33;;;16.80;59.20;;;;;;6254903;23;20015;-71
2023/03/22 09:05:31;;;;;;;5.25;1.20;;;16.80;59.30;;;;;;6255150;23;20008;-71
2023/03/22 09:07:57;;;;;;;7.93;1.50;;;16.90;59.30;;;;;;6255313;23;19992;-71
2023/03/22 09:10:22;;;;;;;4.25;1.17;;;16.80;59.40;;;;;;6255349;23;20079;-75
2023/03/22 09:12:48;;;;;;;4.82;1.17;;;16.90;59.40;;;;;;6255343;23;20055;-78
2023/03/22 09:15:14;;;;;;;4.70;1.10;;;16.90;59.40;;;;;;6256471;23;19996;-76
2023/03/22 09:17:40;;;;;;;5.57;1.27;;;16.90;59.40;;;;;;6245472;23;19996;-75
2023/03/22 09:20:06;;;;;;;3.05;1.20;;;16.90;60.00;;;;;;6255176;23;20054;-78
2023/03/22 09:22:32;;;;;;;5.13;1.23;;;16.90;59.40;;;;;;6255144;23;20458;-78
2023/03/22 09:24:58;;;;;;;4.35;1.52;;;16.90;59.50;;;;;;6255037;23;19996;-77
2023/03/22 09:27:23;;;;;;;4.20;1.30;;;16.90;59.40;;;;;;6255099;23;19996;-73
2023/03/22 09:29:51;;;;;;;4.05;0.80;;;16.90;59.40;;;;;;6245307;23;19996;-72
2023/03/22 09:32:17;;;;;;;4.82;1.10;;;16.90;59.40;;;;;;6244779;23;19996;-72
2023/03/22 09:34:43;;;;;;;4.80;1.08;;;16.90;59.40;;;;;;6244837;23;19992;-72
2023/03/22 09:37:11;;;;;;;5.60;1.38;;;16.90;59.40;;;;;;6245121;23;19999;-72
2023/03/22 09:39:38;;;;;;;5.60;1.40;;;16.90;59.40;;;;;;6255007;23;20000;-72
2023/03/22 09:42:14;;;;;;;4.38;1.40;;;16.90;59.50;;;;;;6254974;23;20061;-71
2023/03/22 09:44:43;;;;;;;6.18;1.10;;;16.90;59.50;;;;;;6255037;23;20003;-71
2023/03/22 09:47:20;;;;;;;2.90;1.20;;;16.90;59.40;;;;;;6255053;23;20004;-75
2023/03/22 09:49:49;;;;;;;6.50;1.50;;;16.90;59.40;;;;;;6255094;23;19996;-77
2023/03/22 09:52:16;;;;;;;6.57;0.90;;;16.90;60.00;;;;;;6244942;23;20352;-76
2023/03/22 09:54:45;;;;;;;4.78;1.05;;;16.90;60.20;;;;;;6245063;23;20004;-77
2023/03/22 09:57:27;;;;;;;2.50;1.17;;;16.90;59.50;;;;;;6218019;23;20500;-76
2023/03/22 10:00:25;;;;;;;4.97;1.20;;;16.90;59.50;;;;;;6244963;23;20327;-76
2023/03/22 10:02:56;;;;;;;5.97;1.10;;;16.90;59.50;;;;;;6244676;23;20016;-77
2023/03/22 10:05:40;;;;;;;5.47;1.30;;;16.90;59.60;;;;;;6245002;23;20075;-71
2023/03/22 10:08:17;;;;;;;3.05;1.10;;;16.90;59.60;;;;;;6245048;23;20069;-71
2023/03/22 10:10:44;;;;;;;3.53;1.30;;;16.90;59.50;;;;;;6244656;23;20075;-71
2023/03/22 10:13:25;;;;;;;5.97;1.20;;;16.90;59.50;;;;;;6245009;23;19996;-71
2023/03/22 10:15:57;;;;;;;2.65;1.00;;;16.90;59.50;;;;;;6245054;23;20004;-71
2023/03/22 10:18:36;;;;;;;5.97;1.35;;;16.90;59.50;;;;;;6244695;23;19996;-71
2023/03/22 10:21:11;;;;;;;4.40;1.30;;;16.90;59.50;;;;;;6255005;23;20119;-71
2023/03/22 10:23:51;;;;;;;2.20;0.90;;;16.90;59.40;;;;;;6254968;23;20434;-71
2023/03/22 10:26:37;;;;;;;3.55;1.08;;;16.90;59.40;;;;;;6244881;23;20008;-77
2023/03/22 10:29:18;;;;;;;4.18;1.33;;;17.00;59.50;;;;;;6244999;23;20000;-76
2023/03/22 10:31:44;;;;;;;4.38;1.10;;;16.90;59.40;;;;;;6244610;23;20000;-76
2023/03/22 10:34:26;;;;;;;4.95;1.08;;;16.90;59.60;;;;;;6244943;23;20012;-76
2023/03/22 10:36:54;;;;;;;3.90;1.30;;;16.90;60.10;;;;;;6245035;23;20022;-76
2023/03/22 10:39:35;;;;;;;6.30;1.20;;;16.90;59.50;;;;;;6245058;23;20102;-77
2023/03/22 10:42:15;;;;;;;3.25;1.05;;;16.90;59.40;;;;;;6245115;23;20078;-77
2023/03/22 10:44:46;;;;;;;4.70;1.17;;;16.90;59.40;;;;;;6244920;23;20016;-77
2023/03/22 10:47:17;;;;;;;3.35;0.88;;;16.90;59.40;;;;;;6244928;23;20018;-76
2023/03/22 10:49:54;;;;;;;2.67;0.77;;;17.00;59.60;;;;;;6244782;23;19999;-76
2023/03/22 10:52:30;;;;;;;3.55;0.82;;;16.90;59.40;;;;;;6244604;23;20022;-76
2023/03/22 10:54:56;;;;;;;3.53;1.20;;;16.90;59.50;;;;;;6244834;23;20011;-77
2023/03/22 10:57:24;;;;;;;3.15;0.90;;;16.90;59.50;;;;;;6254794;23;19996;-77
2023/03/22 10:59:54;;;;;;;4.63;0.93;;;16.90;59.50;;;;;;6254785;23;20003;-76
2023/03/22 11:02:20;;;;;;;7.13;1.20;;;16.90;59.50;;;;;;6244257;23;20015;-76
2023/03/22 11:04:52;;;;;;;4.15;1.10;;;16.90;59.50;;;;;;6244425;23;20497;-76
2023/03/22 11:07:42;;;;;;;4.65;1.20;;;16.90;59.50;;;;;;6244852;23;20008;-77
2023/03/22 11:10:08;;;;;;;2.63;0.98;;;16.90;59.40;;;;;;6245402;23;20015;-76
2023/03/22 11:12:42;;;;;;;3.03;1.08;;;16.90;59.60;;;;;;6246147;23;20004;-76
2023/03/22 11:15:19;;;;;;;4.22;1.00;;;16.90;59.70;;;;;;6246661;23;20088;-77
2023/03/22 11:17:45;;;;;;;1.75;0.85;;;16.90;59.60;;;;;;6246366;23;19997;-71
2023/03/22 11:20:18;;;;;;;7.20;1.25;;;16.90;59.60;;;;;;6246234;23;20000;-72
2023/03/22 11:22:46;;;;;;;4.13;1.30;;;16.90;59.60;;;;;;6246450;23;19992;-72
2023/03/22 11:25:17;;;;;;;4.53;1.20;;;16.90;60.30;;;;;;6246339;23;20046;-72
2023/03/22 11:28:08;;;;;;;2.70;1.08;;;16.90;59.70;;;;;;6246426;23;20004;-72
2023/03/22 11:30:35;;;;;;;2.75;0.90;;;16.80;59.50;;;;;;6246453;23;20000;-72
2023/03/22 11:33:18;;;;;;;4.18;1.23;;;16.90;59.50;;;;;;6246341;23;20004;-72
2023/03/22 11:35:47;;;;;;;3.08;1.15;;;16.90;59.60;;;;;;6246069;23;20068;-77
2023/03/22 11:38:33;;;;;;;2.67;0.93;;;16.90;59.60;;;;;;6246092;23;20071;-76
2023/03/22 11:41:05;;;;;;;1.85;1.05;;;16.90;59.50;;;;;;6246276;23;20066;-77
2023/03/22 11:43:31;;;;;;;3.15;1.02;;;16.90;59.60;;;;;;6246361;23;20004;-76
2023/03/22 11:45:58;;;;;;;3.95;0.70;;;16.80;59.60;;;;;;6246100;23;20066;-77
2023/03/22 11:48:27;;;;;;;2.10;0.98;;;16.80;59.70;;;;;;6245994;23;20423;-77
2023/03/22 11:51:02;;;;;;;1.80;0.90;;;16.80;59.60;;;;;;6246154;23;20000;-77
2023/03/22 11:53:32;;;;;;;2.58;1.00;;;16.80;59.70;;;;;;6246378;23;20003;-77
2023/03/22 11:55:59;;;;;;;2.58;0.90;;;16.80;59.60;;;;;;6246184;23;20019;-75
2023/03/22 11:58:37;;;;;;;2.97;0.90;;;16.80;59.70;;;;;;6246112;23;20411;-72
2023/03/22 12:01:04;;;;;;;3.47;0.90;;;16.80;59.70;;;;;;6245689;23;20000;-71
2023/03/22 12:03:34;;;;;;;2.72;1.00;;;16.80;59.90;;;;;;6245652;23;20065;-72
2023/03/22 12:06:12;;;;;;;3.13;0.98;;;16.80;59.70;;;;;;6255860;23;20335;-72
2023/03/22 12:08:48;;;;;;;3.38;0.80;;;16.80;59.60;;;;;;6255885;23;20318;-72
2023/03/22 12:11:21;;;;;;;2.47;0.80;;;16.80;59.70;;;;;;6255932;23;19996;-71
2023/03/22 12:14:05;;;;;;;1.65;0.60;;;16.80;59.70;;;;;;6246169;23;19996;-71
2023/03/22 12:16:45;;;;;;;2.53;0.88;;;16.80;59.70;;;;;;6255878;23;20004;-71
2023/03/22 12:19:16;;;;;;;3.13;0.70;;;16.80;59.80;;;;;;6255865;23;20075;-71
2023/03/22 12:21:45;;;;;;;1.10;0.60;;;16.80;59.80;;;;;;6255234;23;20239;-70
2023/03/22 12:24:29;;;;;;;1.83;0.75;;;16.80;59.90;;;;;;6255553;23;20424;-70
2023/03/22 12:27:06;;;;;;;4.88;1.25;;;16.80;59.90;;;;;;6245269;23;20011;-70
2023/03/22 12:29:34;;;;;;;4.13;0.85;;;16.80;60.00;;;;;;6255776;23;20000;-70
2023/03/22 12:32:10;;;;;;;3.72;0.90;;;16.80;60.00;;;;;;6255743;23;19997;-75
2023/03/22 12:34:43;;;;;;;1.25;0.70;;;16.80;60.00;;;;;;6245924;23;20387;-76
2023/03/22 12:37:16;;;;;;;3.30;0.75;;;16.80;60.00;;;;;;6245444;23;20019;-75
2023/03/22 12:39:48;;;;;;;2.50;0.68;;;16.80;60.00;;;;;;6245902;23;20004;-75
2023/03/22 12:42:20;;;;;;;1.48;0.68;;;16.80;60.00;;;;;;6245827;23;20445;-75
2023/03/22 12:44:49;;;;;;;2.67;1.05;;;16.80;60.00;;;;;;6245728;23;20001;-75
2023/03/22 12:47:30;;;;;;;1.73;0.70;;;16.80;60.10;;;;;;6245550;23;20011;-75
2023/03/22 12:50:05;;;;;;;1.88;0.57;;;16.80;60.10;;;;;;6245539;23;19993;-75
2023/03/22 12:52:43;;;;;;;2.67;0.70;;;16.80;60.10;;;;;;6245683;23;20000;-76
2023/03/22 12:55:43;;;;;;;3.40;1.25;;;16.80;60.70;;;;;;6245270;23;20497;-75
2023/03/22 12:58:11;;;;;;;3.17;1.00;;;16.80;60.00;;;;;;6238430;23;20001;-75
2023/03/22 13:00:44;;;;;;;2.50;1.13;;;16.80;60.20;;;;;;6255491;23;20000;-75
2023/03/22 13:03:16;;;;;;;3.85;1.15;;;16.80;60.20;;;;;;6255151;23;20007;-75